Time;durP1;ratioP1;P1;durP2;ratioP2;P2;SDS_P1;SDS_P2;PMS_P1;PMS_P2;Temp;Humidity;BMP_temperature;BMP_pressure;BME280_temperature;BME280_humidity;BME280_pressure;Samples;Min_cycle;Max_cycle;Signal;HPM_P1;HPM_P2
2022/03/07 00:00:06;;;;;;;19.55;10.10;;;2.40;59.80;;;;;;5051154;28;20396;-56
2022/03/07 00:02:32;;;;;;;17.90;10.13;;;2.30;60.60;;;;;;5065211;28;20760;-56
2022/03/07 00:04:58;;;;;;;17.83;10.20;;;2.30;61.10;;;;;;5067032;28;20401;-56
2022/03/07 00:07:23;;;;;;;18.10;10.40;;;2.40;61.00;;;;;;5067746;28;20866;-56
2022/03/07 00:09:49;;;;;;;16.90;9.90;;;2.50;61.20;;;;;;5072777;28;20381;-56
2022/03/07 00:12:14;;;;;;;16.90;9.90;;;1.60;61.00;;;;;;5071539;28;20856;-56
2022/03/07 00:14:40;;;;;;;18.00;9.97;;;2.30;62.90;;;;;;5067572;28;20591;-56
2022/03/07 00:17:05;;;;;;;18.10;9.30;;;2.20;63.40;;;;;;5071201;28;20818;-55
2022/03/07 00:19:31;;;;;;;18.55;10.70;;;2.20;63.80;;;;;;5072350;28;20397;-56
2022/03/07 00:21:57;;;;;;;18.40;9.80;;;2.20;64.20;;;;;;5070931;28;20467;-56
2022/03/07 00:24:22;;;;;;;15.20;9.07;;;2.10;64.30;;;;;;5052519;28;20421;-56
2022/03/07 00:26:48;;;;;;;16.75;8.88;;;2.10;64.40;;;;;;5067620;28;20383;-57
2022/03/07 00:29:14;;;;;;;16.43;9.63;;;2.10;64.50;;;;;;5071879;28;20479;-56
2022/03/07 00:31:40;;;;;;;16.77;9.60;;;2.10;65.20;;;;;;5072140;28;20384;-56
2022/03/07 00:34:06;;;;;;;15.52;9.00;;;2.00;66.10;;;;;;5068253;28;20399;-55
2022/03/07 00:36:31;;;;;;;18.37;9.10;;;2.00;66.10;;;;;;5071544;28;20376;-56
2022/03/07 00:38:57;;;;;;;16.58;9.73;;;1.90;66.20;;;;;;5068157;28;20462;-56
2022/03/07 00:41:23;;;;;;;17.42;9.70;;;1.90;66.60;;;;;;5067256;28;20431;-56
2022/03/07 00:43:48;;;;;;;18.30;9.40;;;2.00;66.50;;;;;;5068676;28;20452;-56
2022/03/07 00:46:15;;;;;;;17.23;9.50;;;2.20;66.40;;;;;;5069340;28;20391;-56
2022/03/07 00:48:40;;;;;;;14.47;8.93;;;1.90;66.30;;;;;;5059243;28;20421;-56
2022/03/07 00:51:06;;;;;;;17.30;8.80;;;2.00;66.40;;;;;;5066055;28;20825;-56
2022/03/07 00:53:32;;;;;;;15.35;8.90;;;2.00;66.20;;;;;;5072323;28;20532;-56
2022/03/07 00:55:57;;;;;;;15.17;9.10;;;1.90;66.20;;;;;;5071443;28;20838;-56
2022/03/07 00:58:24;;;;;;;16.30;9.52;;;2.00;66.50;;;;;;5071932;28;20407;-56
2022/03/07 01:00:50;;;;;;;14.40;8.20;;;2.30;66.90;;;;;;5071372;28;20384;-56
2022/03/07 01:03:17;;;;;;;14.97;9.40;;;1.90;66.50;;;;;;5071538;28;20407;-56
2022/03/07 01:05:44;;;;;;;15.93;9.07;;;2.00;66.60;;;;;;5071735;28;20391;-56
2022/03/07 01:08:10;;;;;;;15.98;9.10;;;3.70;68.40;;;;;;5052851;28;20961;-56
2022/03/07 01:10:36;;;;;;;14.60;8.13;;;0.80;65.70;;;;;;5071131;28;20857;-56
2022/03/07 01:13:03;;;;;;;16.30;9.50;;;3.40;68.20;;;;;;5070548;28;20384;-56
2022/03/07 01:15:29;;;;;;;16.17;8.50;;;1.80;66.80;;;;;;5071203;28;20387;-56
2022/03/07 01:17:59;;;;;;;13.60;8.83;;;1.80;66.50;;;;;;5071167;28;20412;-56
2022/03/07 01:20:24;;;;;;;15.75;8.48;;;1.70;65.90;;;;;;5066954;28;20470;-56
2022/03/07 01:22:50;;;;;;;15.55;8.60;;;1.70;65.70;;;;;;5055093;28;20989;-57
2022/03/07 01:25:16;;;;;;;16.03;8.03;;;1.60;65.30;;;;;;5055936;28;20409;-56
2022/03/07 01:27:41;;;;;;;16.90;8.52;;;3.20;67.20;;;;;;5068962;28;20383;-54
2022/03/07 01:30:07;;;;;;;13.05;8.25;;;1.60;66.10;;;;;;5069791;28;20380;-56
2022/03/07 01:32:33;;;;;;;14.80;7.93;;;1.60;65.50;;;;;;5071148;28;20437;-56
2022/03/07 01:34:59;;;;;;;17.73;8.63;;;1.60;65.50;;;;;;5070052;28;20441;-56
2022/03/07 01:37:25;;;;;;;15.05;9.00;;;1.50;66.10;;;;;;5070500;28;20379;-54
2022/03/07 01:39:51;;;;;;;13.77;8.03;;;2.90;67.90;;;;;;5070447;28;20853;-53
2022/03/07 01:42:16;;;;;;;18.53;8.80;;;1.40;66.60;;;;;;5070762;28;20376;-53
2022/03/07 01:44:42;;;;;;;15.60;8.40;;;1.50;66.60;;;;;;5071036;28;20849;-56
2022/03/07 01:47:08;;;;;;;16.40;8.77;;;2.60;67.80;;;;;;5065587;28;20387;-56
2022/03/07 01:49:34;;;;;;;17.97;9.17;;;1.80;67.20;;;;;;5065850;28;20713;-56
2022/03/07 01:52:00;;;;;;;15.55;9.13;;;1.60;67.10;;;;;;5069357;28;20422;-56
2022/03/07 01:54:26;;;;;;;17.77;9.53;;;1.70;67.10;;;;;;5070507;28;20873;-56
2022/03/07 01:56:53;;;;;;;14.87;8.43;;;1.70;66.90;;;;;;5069460;28;20413;-56
2022/03/07 01:59:24;;;;;;;16.17;8.70;;;2.70;67.60;;;;;;5071047;28;20469;-56
2022/03/07 02:01:50;;;;;;;16.73;8.57;;;1.50;66.80;;;;;;5070337;28;20991;-56
2022/03/07 02:04:16;;;;;;;14.13;9.00;;;1.70;67.40;;;;;;5069644;28;20498;-56
2022/03/07 02:06:43;;;;;;;16.40;8.90;;;1.30;67.60;;;;;;5070227;28;20380;-56
2022/03/07 02:09:10;;;;;;;15.82;8.70;;;1.20;68.00;;;;;;5070289;28;20610;-56
2022/03/07 02:11:36;;;;;;;14.50;8.85;;;1.30;67.90;;;;;;5069996;28;20371;-55
2022/03/07 02:14:13;;;;;;;15.13;8.63;;;2.00;68.80;;;;;;5069440;28;20469;-56
2022/03/07 02:16:39;;;;;;;13.57;8.73;;;1.10;67.90;;;;;;5070393;28;20475;-56
2022/03/07 02:19:05;;;;;;;14.93;8.73;;;1.10;68.00;;;;;;5068794;28;20639;-53
2022/03/07 02:21:33;;;;;;;14.90;9.10;;;1.10;68.20;;;;;;5052321;28;20391;-53
2022/03/07 02:23:59;;;;;;;16.30;9.57;;;1.00;68.30;;;;;;5069096;28;20422;-56
2022/03/07 02:26:24;;;;;;;15.73;9.20;;;1.00;68.20;;;;;;5069692;28;20375;-56
2022/03/07 02:28:50;;;;;;;17.10;8.53;;;1.00;68.30;;;;;;5070163;28;20693;-57
2022/03/07 02:31:18;;;;;;;15.53;8.63;;;1.00;67.90;;;;;;5068844;28;20453;-56
2022/03/07 02:33:44;;;;;;;15.10;9.05;;;0.90;68.30;;;;;;5070139;28;20387;-56
2022/03/07 02:36:09;;;;;;;15.45;9.45;;;0.90;68.40;;;;;;5069277;28;20757;-56
2022/03/07 02:38:35;;;;;;;15.77;8.90;;;1.50;69.20;;;;;;5069654;28;20442;-56
2022/03/07 02:41:01;;;;;;;16.63;8.80;;;2.80;70.60;;;;;;5068840;28;20394;-56
2022/03/07 02:43:27;;;;;;;16.27;9.20;;;0.90;68.40;;;;;;5069782;28;20453;-56
2022/03/07 02:45:53;;;;;;;16.20;8.88;;;0.80;68.40;;;;;;5069711;28;20380;-56
2022/03/07 02:48:19;;;;;;;17.98;9.98;;;2.40;69.50;;;;;;5070065;28;20390;-55
2022/03/07 02:50:47;;;;;;;17.33;9.00;;;1.70;68.80;;;;;;5069923;28;20757;-56
2022/03/07 02:53:14;;;;;;;16.25;9.50;;;0.70;67.80;;;;;;5069266;28;20445;-56
2022/03/07 02:55:40;;;;;;;17.35;9.68;;;0.70;68.20;;;;;;5069475;28;20877;-55
2022/03/07 02:58:05;;;;;;;17.47;9.77;;;0.70;68.30;;;;;;5069182;28;20375;-55
2022/03/07 03:00:32;;;;;;;17.47;9.60;;;0.60;68.10;;;;;;5069914;28;20379;-56
2022/03/07 03:02:57;;;;;;;16.65;9.45;;;0.60;68.00;;;;;;5059089;28;20425;-56
2022/03/07 03:05:24;;;;;;;16.20;9.97;;;0.60;67.80;;;;;;5068245;28;20437;-55
2022/03/07 03:07:51;;;;;;;17.00;9.40;;;0.60;67.70;;;;;;5049857;28;20397;-56
2022/03/07 03:10:20;;;;;;;17.65;10.30;;;0.60;67.50;;;;;;5058167;28;20372;-55
2022/03/07 03:12:47;;;;;;;15.95;9.25;;;0.60;67.50;;;;;;5069763;28;20410;-55
2022/03/07 03:15:13;;;;;;;16.20;9.15;;;2.10;69.10;;;;;;5068957;28;20710;-56
2022/03/07 03:17:40;;;;;;;16.85;9.07;;;0.50;67.90;;;;;;5069388;28;20380;-55
2022/03/07 03:20:08;;;;;;;17.08;9.00;;;0.50;68.00;;;;;;5068953;28;20478;-55
2022/03/07 03:22:34;;;;;;;16.38;9.30;;;0.40;67.80;;;;;;5068765;28;20502;-56
2022/03/07 03:24:59;;;;;;;17.33;9.90;;;0.40;68.10;;;;;;5069239;28;20796;-56
2022/03/07 03:27:25;;;;;;;19.08;9.57;;;0.40;68.10;;;;;;5069531;28;20846;-55
2022/03/07 03:29:50;;;;;;;19.80;9.80;;;0.40;68.10;;;;;;5068022;28;20749;-53
2022/03/07 03:32:16;;;;;;;16.90;9.30;;;0.40;68.50;;;;;;5068675;28;20368;-53
2022/03/07 03:34:42;;;;;;;18.75;11.13;;;0.40;68.50;;;;;;5069823;28;20459;-53
2022/03/07 03:37:08;;;;;;;19.13;10.60;;;0.30;68.50;;;;;;5057006;28;20410;-53
2022/03/07 03:39:34;;;;;;;17.77;9.90;;;0.30;68.80;;;;;;5054452;28;20377;-53
2022/03/07 03:42:00;;;;;;;18.25;10.60;;;0.20;69.00;;;;;;5048079;28;20897;-53
2022/03/07 03:44:25;;;;;;;19.33;10.30;;;1.40;70.70;;;;;;5049547;28;20425;-53
2022/03/07 03:46:51;;;;;;;18.70;10.50;;;0.90;70.60;;;;;;5049255;28;20483;-53
2022/03/07 03:49:17;;;;;;;16.45;9.60;;;0.20;70.20;;;;;;5049244;28;20393;-53
2022/03/07 03:51:42;;;;;;;18.95;9.70;;;1.40;71.30;;;;;;5049499;28;20866;-53
2022/03/07 03:54:08;;;;;;;20.50;10.33;;;0.10;70.60;;;;;;5051580;28;20886;-53
2022/03/07 03:56:33;;;;;;;20.60;10.30;;;0.10;70.80;;;;;;5052602;28;20377;-53
2022/03/07 03:58:59;;;;;;;18.25;10.13;;;0.10;70.80;;;;;;5034108;28;20883;-53
2022/03/07 04:01:25;;;;;;;18.60;10.77;;;0.10;70.90;;;;;;5053013;28;20464;-53
2022/03/07 04:03:50;;;;;;;19.30;10.30;;;0.10;70.90;;;;;;5052532;28;20498;-53
2022/03/07 04:06:16;;;;;;;19.15;10.20;;;0.00;71.00;;;;;;5052147;28;20431;-53
2022/03/07 04:08:50;;;;;;;17.13;10.07;;;1.40;72.80;;;;;;5052297;28;20735;-53
2022/03/07 04:11:15;;;;;;;18.42;10.27;;;0.00;71.40;;;;;;5050502;28;20408;-53
2022/03/07 04:13:42;;;;;;;18.33;10.90;;;0.00;72.20;;;;;;5052311;28;20393;-53
2022/03/07 04:16:07;;;;;;;17.58;10.25;;;0.10;74.00;;;;;;5050805;28;20726;-53
2022/03/07 04:18:33;;;;;;;17.65;10.07;;;0.00;75.30;;;;;;5052361;28;20397;-56
2022/03/07 04:20:59;;;;;;;18.30;10.02;;;-0.10;75.30;;;;;;5051716;28;20747;-54
2022/03/07 04:23:25;;;;;;;18.58;10.23;;;-0.10;75.50;;;;;;5052484;28;20417;-53
2022/03/07 04:25:51;;;;;;;16.70;9.52;;;-0.10;75.90;;;;;;5051592;28;20472;-56
2022/03/07 04:28:17;;;;;;;16.55;9.48;;;0.00;76.00;;;;;;5051736;28;20373;-56
2022/03/07 04:30:42;;;;;;;17.85;9.82;;;1.90;76.40;;;;;;5051915;28;20997;-56
2022/03/07 04:33:09;;;;;;;18.80;9.80;;;0.10;73.40;;;;;;5058342;28;20450;-56
2022/03/07 04:35:35;;;;;;;16.35;9.60;;;1.50;74.20;;;;;;5056699;28;20847;-56
2022/03/07 04:38:01;;;;;;;16.55;9.85;;;0.20;72.10;;;;;;5051191;28;20551;-56
2022/03/07 04:40:28;;;;;;;17.40;10.00;;;0.20;72.60;;;;;;5051933;28;20381;-56
2022/03/07 04:42:56;;;;;;;17.63;9.55;;;0.20;71.70;;;;;;5051145;28;20925;-56
2022/03/07 04:45:22;;;;;;;15.90;9.60;;;1.70;73.20;;;;;;5034011;28;20759;-56
2022/03/07 04:47:48;;;;;;;17.20;10.00;;;0.30;71.40;;;;;;5051589;28;20527;-56
2022/03/07 04:50:14;;;;;;;18.90;10.38;;;0.30;71.30;;;;;;5050481;28;21091;-56
2022/03/07 04:52:42;;;;;;;18.48;10.27;;;1.10;72.20;;;;;;5051643;28;20879;-56
2022/03/07 04:55:12;;;;;;;18.77;9.73;;;0.20;71.40;;;;;;5050977;28;20386;-56
2022/03/07 04:57:39;;;;;;;18.65;10.43;;;0.10;71.60;;;;;;5051878;28;20385;-56
2022/03/07 05:00:07;;;;;;;16.90;9.43;;;0.10;72.40;;;;;;5051079;28;20397;-56
2022/03/07 05:02:33;;;;;;;17.85;9.63;;;0.10;72.60;;;;;;5051744;28;20879;-56
2022/03/07 05:04:58;;;;;;;18.95;10.70;;;0.10;72.70;;;;;;5049443;28;20431;-56
2022/03/07 05:07:24;;;;;;;17.43;9.90;;;0.10;73.20;;;;;;5051468;28;20411;-54
2022/03/07 05:09:50;;;;;;;19.53;10.10;;;0.10;73.50;;;;;;5051359;28;20380;-53
2022/03/07 05:12:16;;;;;;;18.67;10.30;;;0.10;73.60;;;;;;5050805;28;20389;-54
2022/03/07 05:14:41;;;;;;;18.08;10.23;;;2.30;75.90;;;;;;5051843;28;20452;-54
2022/03/07 05:17:07;;;;;;;19.55;10.63;;;0.10;73.70;;;;;;5050952;28;20380;-54
2022/03/07 05:19:33;;;;;;;19.60;10.60;;;0.10;73.80;;;;;;5051284;28;20484;-54
2022/03/07 05:21:59;;;;;;;18.00;10.67;;;1.80;76.50;;;;;;5050706;28;20370;-55
2022/03/07 05:24:25;;;;;;;18.48;10.10;;;0.00;74.20;;;;;;5051075;28;20405;-54
2022/03/07 05:26:52;;;;;;;17.55;9.88;;;0.00;74.90;;;;;;5057655;28;20488;-54
2022/03/07 05:29:18;;;;;;;19.00;10.32;;;1.70;77.20;;;;;;5054969;28;20849;-54
2022/03/07 05:31:43;;;;;;;19.15;10.27;;;0.00;75.80;;;;;;5060055;28;20490;-55
2022/03/07 05:34:09;;;;;;;22.38;10.63;;;0.00;76.00;;;;;;5065719;28;20380;-55
2022/03/07 05:36:35;;;;;;;21.65;11.30;;;-0.10;77.10;;;;;;5070522;28;20474;-55
2022/03/07 05:39:00;;;;;;;18.73;10.67;;;0.10;78.60;;;;;;5062134;28;20742;-55
2022/03/07 05:41:26;;;;;;;20.00;11.77;;;0.40;79.50;;;;;;5050994;28;20377;-54
2022/03/07 05:43:52;;;;;;;21.17;11.50;;;0.00;79.50;;;;;;5051143;28;20409;-54
2022/03/07 05:46:17;;;;;;;20.83;11.57;;;-0.10;79.70;;;;;;5049878;28;20370;-56
2022/03/07 05:48:43;;;;;;;24.50;12.55;;;0.30;80.60;;;;;;5050919;28;20878;-54
2022/03/07 05:51:09;;;;;;;23.13;12.00;;;-0.10;80.70;;;;;;5050486;28;20382;-55
2022/03/07 05:53:34;;;;;;;20.05;11.90;;;-0.10;81.40;;;;;;5050637;28;20519;-55
2022/03/07 05:56:00;;;;;;;20.58;11.98;;;-0.10;82.40;;;;;;5050003;28;20373;-55
2022/03/07 05:58:26;;;;;;;20.60;12.10;;;-0.20;84.00;;;;;;5050971;28;20852;-55
2022/03/07 06:00:51;;;;;;;23.20;12.23;;;1.70;87.80;;;;;;5050629;28;20385;-54
2022/03/07 06:03:17;;;;;;;21.75;11.65;;;-0.30;86.50;;;;;;5049970;28;20496;-55
2022/03/07 06:05:42;;;;;;;24.08;12.00;;;-0.20;87.60;;;;;;5049720;28;20400;-54
2022/03/07 06:08:08;;;;;;;19.53;10.83;;;-0.20;88.10;;;;;;5049861;28;20377;-55
2022/03/07 06:10:34;;;;;;;18.52;10.32;;;-0.30;88.60;;;;;;5050592;28;20431;-55
2022/03/07 06:13:00;;;;;;;19.52;11.38;;;-0.20;89.70;;;;;;5049680;28;20377;-55
2022/03/07 06:15:25;;;;;;;20.27;10.23;;;-0.10;90.00;;;;;;5050433;28;20465;-55
2022/03/07 06:17:53;;;;;;;17.97;10.33;;;-0.10;90.20;;;;;;5050500;28;20396;-55
2022/03/07 06:20:20;;;;;;;19.65;10.10;;;-0.10;90.50;;;;;;5049804;28;20373;-54
2022/03/07 06:22:46;;;;;;;19.90;10.43;;;0.30;90.90;;;;;;5049901;28;20413;-55
2022/03/07 06:25:11;;;;;;;21.33;12.10;;;0.00;90.80;;;;;;5050264;28;20393;-55
2022/03/07 06:27:37;;;;;;;27.83;14.52;;;0.00;90.80;;;;;;5061375;28;20458;-56
2022/03/07 06:30:03;;;;;;;32.67;17.33;;;2.30;92.20;;;;;;5050162;28;20433;-55
2022/03/07 06:32:29;;;;;;;27.65;14.10;;;0.20;91.20;;;;;;5067644;28;20395;-55
2022/03/07 06:34:55;;;;;;;25.52;12.93;;;0.30;91.10;;;;;;5068979;28;20883;-55
2022/03/07 06:37:20;;;;;;;20.55;9.95;;;0.40;90.70;;;;;;5066293;28;20410;-55
2022/03/07 06:39:46;;;;;;;17.83;10.50;;;0.30;90.90;;;;;;5055263;28;20406;-55
2022/03/07 06:42:12;;;;;;;20.55;10.40;;;0.50;91.10;;;;;;5056729;28;20391;-55
2022/03/07 06:44:39;;;;;;;20.20;9.82;;;2.00;91.30;;;;;;5055291;28;20473;-57
2022/03/07 06:47:08;;;;;;;15.93;8.75;;;0.50;90.60;;;;;;5068249;28;20384;-55
2022/03/07 06:49:34;;;;;;;17.38;9.73;;;0.70;90.70;;;;;;5066758;28;20441;-53
2022/03/07 06:51:59;;;;;;;19.63;9.73;;;0.80;90.30;;;;;;5064129;28;20398;-55
2022/03/07 06:54:25;;;;;;;17.23;9.27;;;0.90;90.30;;;;;;5068063;28;20433;-57
2022/03/07 06:56:51;;;;;;;17.60;9.40;;;1.90;89.60;;;;;;5069711;28;20384;-57
2022/03/07 06:59:17;;;;;;;14.55;8.15;;;3.60;87.40;;;;;;5068653;28;20364;-58
2022/03/07 07:01:42;;;;;;;15.75;7.68;;;3.20;82.50;;;;;;5069775;28;20942;-56
2022/03/07 07:04:08;;;;;;;15.63;8.70;;;6.30;79.50;;;;;;5065157;28;20778;-56
2022/03/07 07:06:33;;;;;;;16.38;7.95;;;5.00;72.60;;;;;;5064864;28;20884;-56
2022/03/07 07:08:59;;;;;;;15.37;8.47;;;6.90;70.60;;;;;;5069363;28;20395;-56
2022/03/07 07:11:25;;;;;;;14.80;8.18;;;6.20;67.30;;;;;;5069364;28;20384;-56
2022/03/07 07:13:50;;;;;;;13.67;8.40;;;6.50;64.40;;;;;;5066960;28;20449;-56
2022/03/07 07:16:16;;;;;;;15.20;8.50;;;7.10;63.40;;;;;;5071883;28;20931;-56
2022/03/07 07:18:42;;;;;;;16.80;8.80;;;6.90;61.60;;;;;;5076251;28;20400;-56
2022/03/07 07:21:07;;;;;;;12.25;7.60;;;7.40;59.90;;;;;;5084619;28;20390;-56
2022/03/07 07:23:34;;;;;;;12.43;7.70;;;7.90;59.60;;;;;;5074225;28;20407;-57
2022/03/07 07:26:00;;;;;;;18.17;9.48;;;6.30;60.40;;;;;;5083039;28;20384;-56
2022/03/07 07:28:25;;;;;;;15.07;8.20;;;6.40;61.00;;;;;;5080537;28;20382;-56
2022/03/07 07:30:51;;;;;;;17.97;8.87;;;5.80;60.20;;;;;;5078482;28;20872;-56
2022/03/07 07:33:17;;;;;;;15.57;8.02;;;5.40;61.60;;;;;;5073322;28;20402;-56
2022/03/07 07:35:43;;;;;;;16.92;8.45;;;5.20;62.30;;;;;;5072438;28;20838;-56
2022/03/07 07:38:09;;;;;;;15.80;8.17;;;5.40;63.20;;;;;;5072026;28;21221;-56
2022/03/07 07:40:35;;;;;;;13.20;7.53;;;6.30;61.40;;;;;;5072656;28;20386;-56
2022/03/07 07:43:02;;;;;;;15.38;8.02;;;7.20;59.40;;;;;;5054483;28;20533;-56
2022/03/07 07:45:28;;;;;;;14.13;8.48;;;7.80;57.50;;;;;;5073229;28;20394;-57
2022/03/07 07:47:54;;;;;;;14.27;8.65;;;7.80;56.40;;;;;;5072876;28;20380;-57
2022/03/07 07:50:21;;;;;;;15.40;7.97;;;7.20;56.30;;;;;;5072240;28;20930;-57
2022/03/07 07:52:46;;;;;;;15.07;8.23;;;7.00;56.50;;;;;;5072987;28;20450;-57
2022/03/07 07:55:12;;;;;;;13.98;8.30;;;7.40;56.30;;;;;;5072404;28;20411;-57
2022/03/07 07:57:39;;;;;;;16.43;8.00;;;8.20;55.70;;;;;;5072883;28;20388;-58
2022/03/07 08:00:07;;;;;;;15.25;8.50;;;8.80;54.70;;;;;;5072091;28;20380;-57
2022/03/07 08:02:33;;;;;;;15.70;9.07;;;9.20;53.50;;;;;;5072371;28;20380;-57
2022/03/07 08:04:59;;;;;;;13.43;8.30;;;9.60;52.30;;;;;;5072338;28;20380;-57
2022/03/07 08:07:25;;;;;;;15.25;8.80;;;8.60;52.50;;;;;;5072381;28;20872;-57
2022/03/07 08:09:52;;;;;;;16.90;9.48;;;8.60;52.00;;;;;;5072546;28;20380;-57
2022/03/07 08:12:18;;;;;;;15.68;8.80;;;8.20;53.30;;;;;;5071954;28;20825;-58
2022/03/07 08:14:45;;;;;;;18.92;9.52;;;8.50;53.00;;;;;;5072891;28;20387;-57
2022/03/07 08:17:11;;;;;;;17.98;10.30;;;8.50;52.90;;;;;;5071927;28;20388;-57
2022/03/07 08:19:37;;;;;;;16.90;10.00;;;9.30;52.10;;;;;;5072205;28;20396;-57
2022/03/07 08:22:03;;;;;;;16.27;9.68;;;10.00;50.00;;;;;;5070894;28;20403;-57
2022/03/07 08:24:29;;;;;;;15.67;9.47;;;9.40;50.80;;;;;;5072539;28;20411;-57
2022/03/07 08:26:54;;;;;;;16.40;9.43;;;9.90;50.60;;;;;;5072390;28;20408;-57
2022/03/07 08:29:20;;;;;;;15.73;9.80;;;10.60;48.80;;;;;;5071888;28;20380;-57
2022/03/07 08:31:46;;;;;;;15.17;9.30;;;11.50;47.40;;;;;;5072297;28;20395;-57
2022/03/07 08:34:11;;;;;;;17.42;10.73;;;11.40;46.20;;;;;;5071004;28;20388;-57
2022/03/07 08:36:37;;;;;;;17.37;10.57;;;11.30;44.80;;;;;;5053876;28;20387;-57
2022/03/07 08:39:03;;;;;;;18.55;10.50;;;11.40;43.80;;;;;;5071333;28;20471;-57
2022/03/07 08:41:29;;;;;;;15.43;9.60;;;10.60;44.20;;;;;;5071987;28;20425;-57
2022/03/07 08:43:55;;;;;;;15.57;9.55;;;10.30;44.00;;;;;;5071923;28;20762;-57
2022/03/07 08:46:22;;;;;;;16.63;9.93;;;10.10;44.20;;;;;;5071620;28;20879;-58
2022/03/07 08:48:47;;;;;;;20.35;10.10;;;9.70;46.30;;;;;;5072025;28;20398;-58
2022/03/07 08:51:13;;;;;;;15.82;9.63;;;9.60;47.10;;;;;;5071300;28;20392;-58
2022/03/07 08:53:39;;;;;;;16.47;9.90;;;10.60;45.70;;;;;;5071864;28;21028;-58
2022/03/07 08:56:05;;;;;;;17.95;10.10;;;10.60;44.70;;;;;;5071004;28;20368;-58
2022/03/07 08:58:30;;;;;;;17.00;10.30;;;9.90;45.90;;;;;;5071671;28;20383;-58
2022/03/07 09:00:56;;;;;;;16.98;10.25;;;10.00;44.90;;;;;;5071092;28;20756;-58
2022/03/07 09:03:22;;;;;;;16.20;10.00;;;9.90;46.20;;;;;;5072147;28;20408;-58
2022/03/07 09:05:47;;;;;;;16.23;10.00;;;9.40;46.70;;;;;;5072234;28;20497;-57
2022/03/07 09:08:13;;;;;;;17.93;10.73;;;9.80;46.10;;;;;;5070502;28;20403;-58
2022/03/07 09:10:39;;;;;;;16.27;10.50;;;9.90;46.50;;;;;;5071786;28;20375;-58
2022/03/07 09:13:04;;;;;;;16.57;10.07;;;9.70;45.80;;;;;;5070823;28;20475;-58
2022/03/07 09:15:30;;;;;;;16.50;9.85;;;9.70;46.50;;;;;;5072204;28;20376;-58
2022/03/07 09:17:56;;;;;;;17.50;10.30;;;10.40;45.00;;;;;;5071472;28;20380;-58
2022/03/07 09:20:21;;;;;;;17.23;10.52;;;10.70;44.80;;;;;;5070778;28;20461;-56
2022/03/07 09:22:47;;;;;;;15.53;10.20;;;11.40;43.60;;;;;;5070489;28;20396;-56
2022/03/07 09:25:14;;;;;;;18.13;10.60;;;11.70;43.40;;;;;;5070241;28;20505;-56
2022/03/07 09:27:42;;;;;;;17.05;10.98;;;12.30;52.20;;;;;;5070834;28;20459;-56
2022/03/07 09:30:09;;;;;;;15.70;10.27;;;12.70;52.00;;;;;;5070567;28;20428;-56
2022/03/07 09:32:36;;;;;;;16.55;10.40;;;12.50;50.70;;;;;;5070006;28;21398;-58
2022/03/07 09:35:03;;;;;;;16.55;10.15;;;11.30;48.70;;;;;;5070405;28;20425;-58
2022/03/07 09:37:32;;;;;;;17.43;10.67;;;11.40;49.40;;;;;;5070707;28;20829;-58
2022/03/07 09:39:58;;;;;;;15.35;9.68;;;11.20;41.10;;;;;;5070066;28;20857;-58
2022/03/07 09:42:23;;;;;;;17.67;10.67;;;9.50;42.80;;;;;;5070467;28;20379;-58
2022/03/07 09:44:49;;;;;;;15.95;10.40;;;9.10;44.60;;;;;;5070461;28;20865;-58
2022/03/07 09:47:15;;;;;;;16.85;10.50;;;10.20;43.20;;;;;;5070099;28;20387;-58
2022/03/07 09:49:41;;;;;;;16.30;9.77;;;10.70;45.70;;;;;;5052837;28;20399;-57
2022/03/07 09:52:07;;;;;;;15.45;10.45;;;11.70;48.40;;;;;;5069241;28;20376;-56
2022/03/07 09:54:32;;;;;;;17.53;11.30;;;12.40;47.20;;;;;;5070402;28;20923;-59
2022/03/07 09:56:58;;;;;;;18.98;10.75;;;11.00;40.30;;;;;;5051935;28;20445;-58
2022/03/07 09:59:24;;;;;;;18.10;10.20;;;9.40;43.60;;;;;;5071045;28;20372;-58
2022/03/07 10:02:02;;;;;;;14.48;9.30;;;9.30;45.30;;;;;;5070649;28;20388;-58
2022/03/07 10:04:30;;;;;;;17.95;10.77;;;10.60;53.30;;;;;;5070363;28;20403;-57
2022/03/07 10:06:56;;;;;;;15.70;10.18;;;11.80;49.40;;;;;;5069794;28;20877;-56
2022/03/07 10:09:25;;;;;;;17.45;11.20;;;12.60;48.20;;;;;;5070117;28;20480;-57
2022/03/07 10:12:00;;;;;;;15.93;10.60;;;11.40;38.50;;;;;;5065614;28;20852;-59
2022/03/07 10:14:44;;;;;;;16.60;10.32;;;10.40;40.70;;;;;;5070594;28;20463;-59
2022/03/07 10:17:27;;;;;;;15.45;9.63;;;10.20;40.80;;;;;;5069781;28;20425;-58
2022/03/07 10:19:54;;;;;;;15.85;10.50;;;10.40;40.80;;;;;;5070466;28;20400;-58
2022/03/07 10:22:26;;;;;;;15.90;9.60;;;10.50;41.50;;;;;;5069073;28;20396;-58
2022/03/07 10:24:59;;;;;;;16.33;10.25;;;10.80;41.40;;;;;;5069818;28;20456;-57
2022/03/07 10:27:37;;;;;;;15.18;10.10;;;11.80;40.20;;;;;;5070078;28;20392;-56
2022/03/07 10:30:08;;;;;;;17.27;10.65;;;12.90;51.20;;;;;;5069580;28;20384;-56
2022/03/07 10:32:34;;;;;;;18.43;12.30;;;12.90;46.50;;;;;;5069429;28;20772;-56
2022/03/07 10:34:59;;;;;;;15.70;10.70;;;12.80;45.20;;;;;;5069505;28;20833;-58
2022/03/07 10:37:39;;;;;;;16.90;10.50;;;11.20;45.70;;;;;;5070260;28;20742;-58
2022/03/07 10:40:19;;;;;;;15.60;9.63;;;11.10;46.80;;;;;;5068912;28;20383;-58
2022/03/07 10:42:46;;;;;;;17.52;11.20;;;9.70;47.40;;;;;;5069638;28;20411;-59
2022/03/07 10:45:12;;;;;;;16.27;9.98;;;9.60;49.60;;;;;;5068976;28;20434;-59
2022/03/07 10:47:38;;;;;;;16.50;10.18;;;10.40;48.50;;;;;;5069841;28;20416;-59
2022/03/07 10:50:05;;;;;;;16.70;10.88;;;11.40;46.40;;;;;;5069194;28;20838;-56
2022/03/07 10:52:51;;;;;;;16.63;10.23;;;11.40;44.90;;;;;;5069811;28;20476;-58
2022/03/07 10:55:24;;;;;;;18.73;11.20;;;11.20;45.60;;;;;;5068808;28;20422;-58
2022/03/07 10:57:49;;;;;;;15.85;9.63;;;11.10;44.50;;;;;;5069867;28;20902;-58
2022/03/07 11:00:21;;;;;;;16.60;10.20;;;9.80;45.20;;;;;;5069425;28;20458;-58
2022/03/07 11:02:49;;;;;;;16.63;10.13;;;9.40;46.80;;;;;;5068470;28;20802;-56
2022/03/07 11:05:17;;;;;;;17.83;10.90;;;8.60;47.00;;;;;;5034122;28;20426;-58
2022/03/07 11:07:51;;;;;;;16.58;10.52;;;9.20;46.90;;;;;;5069535;28;20387;-58
2022/03/07 11:10:18;;;;;;;17.60;10.80;;;10.30;44.50;;;;;;5068271;28;20382;-58
2022/03/07 11:12:44;;;;;;;16.58;10.45;;;11.00;43.00;;;;;;5069317;28;20387;-58
2022/03/07 11:15:14;;;;;;;15.75;10.20;;;11.50;41.40;;;;;;5068518;28;20379;-58
2022/03/07 11:17:45;;;;;;;16.15;11.18;;;11.30;41.50;;;;;;5069994;28;20383;-58
2022/03/07 11:20:13;;;;;;;15.95;10.18;;;10.90;41.20;;;;;;5068694;28;20388;-58
2022/03/07 11:22:39;;;;;;;16.30;10.50;;;11.20;41.70;;;;;;5068833;28;20927;-58
2022/03/07 11:25:07;;;;;;;18.00;10.70;;;11.40;41.30;;;;;;5068537;28;20387;-58
2022/03/07 11:27:33;;;;;;;17.33;10.35;;;11.20;41.00;;;;;;5069270;28;20384;-58
2022/03/07 11:29:59;;;;;;;17.30;10.50;;;10.90;41.40;;;;;;5069520;28;20466;-58
2022/03/07 11:32:25;;;;;;;15.35;10.27;;;11.20;41.80;;;;;;5069258;28;20410;-58
2022/03/07 11:34:55;;;;;;;16.50;11.05;;;11.50;41.50;;;;;;5069494;28;20778;-56
2022/03/07 11:37:23;;;;;;;16.70;10.10;;;11.50;41.00;;;;;;5068715;28;20607;-57
2022/03/07 11:39:49;;;;;;;16.23;10.45;;;10.90;41.20;;;;;;5069474;28;20379;-58
2022/03/07 11:42:19;;;;;;;16.67;10.90;;;10.60;42.10;;;;;;5068456;28;20913;-58
2022/03/07 11:44:47;;;;;;;15.95;9.95;;;9.80;45.70;;;;;;5069508;28;20407;-58
2022/03/07 11:47:19;;;;;;;16.47;9.63;;;9.20;46.00;;;;;;5068529;28;20411;-58
2022/03/07 11:49:57;;;;;;;16.23;10.43;;;9.00;48.50;;;;;;5068872;28;20476;-58
2022/03/07 11:52:23;;;;;;;17.50;10.53;;;8.80;47.40;;;;;;5068915;28;20383;-57
2022/03/07 11:54:53;;;;;;;19.05;10.75;;;8.20;47.80;;;;;;5069100;28;20392;-57
2022/03/07 11:57:37;;;;;;;16.23;10.00;;;7.90;45.70;;;;;;5068160;28;20380;-58
2022/03/07 12:00:23;;;;;;;14.90;9.80;;;7.40;46.00;;;;;;5068596;28;20443;-57
2022/03/07 12:02:53;;;;;;;16.38;9.38;;;6.90;43.30;;;;;;5069317;28;20427;-57
2022/03/07 12:05:25;;;;;;;16.40;10.13;;;6.70;44.20;;;;;;5068905;28;20407;-58
2022/03/07 12:07:52;;;;;;;16.08;10.00;;;7.00;44.30;;;;;;5051299;28;20388;-57
2022/03/07 12:10:19;;;;;;;15.20;9.73;;;7.40;43.60;;;;;;5067988;28;20383;-57
2022/03/07 12:12:45;;;;;;;17.35;10.30;;;7.60;43.70;;;;;;5068990;28;20372;-57
2022/03/07 12:15:13;;;;;;;16.20;10.40;;;7.60;43.20;;;;;;5053249;28;20438;-56
2022/03/07 12:17:40;;;;;;;17.90;9.90;;;7.70;42.90;;;;;;5072317;28;20409;-56
2022/03/07 12:20:06;;;;;;;16.40;10.32;;;7.40;43.20;;;;;;5071759;28;20775;-57
2022/03/07 12:22:34;;;;;;;15.45;9.32;;;7.00;43.50;;;;;;5071959;28;20403;-56
2022/03/07 12:25:07;;;;;;;16.77;10.10;;;6.70;44.20;;;;;;5072373;28;20420;-56
2022/03/07 12:27:37;;;;;;;16.10;9.80;;;6.90;44.10;;;;;;5054192;28;20387;-56
2022/03/07 12:30:08;;;;;;;15.98;9.93;;;6.80;43.40;;;;;;5071844;28;20383;-57
2022/03/07 12:32:35;;;;;;;16.60;9.63;;;6.90;44.10;;;;;;5071470;28;20393;-57
2022/03/07 12:35:01;;;;;;;16.53;9.50;;;6.90;44.20;;;;;;5071799;28;20380;-56
2022/03/07 12:37:28;;;;;;;15.63;9.70;;;7.10;44.10;;;;;;5071405;28;20501;-56